Terminal Aerodrome Forecast
Issued by NWS

Home | Current Version | Previous Version | Graphics & Text | Print | Product List | Glossary On
Versions: 1 2 3 4 5 6 7 8 9 10 11 12 13 14 15 16 17 18 19 20 21 22 23 24 25 26 27 28
612
FTUS43 KLOT 280547
TAFORD
TAF
KORD 280547Z 2806/2912 10004KT P6SM SCT080 BKN150
     FM281500 26008KT P6SM VCSH SCT025 BKN035 PROB30 2816/2819 4SM
      TSRA BKN015 OVC035CB
     FM282100 30011G18KT P6SM SCT040 BKN100
     FM290100 27008KT P6SM SCT100=

USA.gov is the U.S. government's official web portal to all federal, state and local government web resources and services.